Time;durP1;ratioP1;P1;durP2;ratioP2;P2;SDS_P1;SDS_P2;PMS_P1;PMS_P2;Temp;Humidity;BMP_temperature;BMP_pressure;BME280_temperature;BME280_humidity;BME280_pressure;Samples;Min_cycle;Max_cycle;Signal;HPM_P1;HPM_P2
2021/04/14 00:00:01;;;;;;;18.85;9.20;;;76.80;2227.20;;;;;;5037835;28;20056;-69
2021/04/14 00:02:26;;;;;;;17.85;9.15;;;76.80;2227.20;;;;;;5037922;28;20064;-68
2021/04/14 00:04:54;;;;;;;22.63;11.07;;;76.80;2227.20;;;;;;5038338;28;20025;-68
2021/04/14 00:07:20;;;;;;;20.98;10.20;;;76.80;2227.20;;;;;;5037505;28;20029;-68
2021/04/14 00:09:46;;;;;;;19.13;9.98;;;52.10;2227.20;;;;;;5038112;28;20029;-68
2021/04/14 00:12:12;;;;;;;20.55;10.85;;;52.10;2227.20;;;;;;5037677;28;20394;-69
2021/04/14 00:14:38;;;;;;;18.98;10.95;;;52.10;2227.20;;;;;;5037907;28;20056;-68
2021/04/14 00:17:04;;;;;;;14.40;8.52;;;52.10;2227.20;;;;;;5038083;28;20112;-67
2021/04/14 00:19:31;;;;;;;15.32;8.82;;;52.10;2227.20;;;;;;5038030;28;20029;-69
2021/04/14 00:21:58;;;;;;;14.40;8.48;;;52.10;2227.20;;;;;;5038429;28;20033;-67
2021/04/14 00:24:24;;;;;;;13.13;7.50;;;52.10;2227.20;;;;;;5046463;28;20021;-68
2021/04/14 00:26:50;;;;;;;10.18;6.00;;;52.00;2227.20;;;;;;5048157;28;20098;-67
2021/04/14 00:29:16;;;;;;;10.45;5.43;;;52.00;2227.20;;;;;;5046334;28;20416;-68
2021/04/14 00:31:42;;;;;;;8.52;5.28;;;51.90;2227.20;;;;;;5046900;28;20025;-69
2021/04/14 00:34:10;;;;;;;10.40;6.05;;;51.90;2227.20;;;;;;5047948;28;20404;-68
2021/04/14 00:36:37;;;;;;;6.72;4.15;;;51.90;2227.20;;;;;;5045890;28;20033;-69
2021/04/14 00:39:06;;;;;;;7.28;4.05;;;51.80;2227.20;;;;;;5046670;28;20162;-67
2021/04/14 00:41:34;;;;;;;8.23;4.75;;;51.80;2227.20;;;;;;5047419;28;20052;-67
2021/04/14 00:44:01;;;;;;;9.60;5.05;;;51.80;2227.20;;;;;;5046848;28;20112;-68
2021/04/14 00:46:27;;;;;;;7.82;4.88;;;51.80;2227.20;;;;;;5045323;28;20450;-69
2021/04/14 00:48:52;;;;;;;7.15;4.70;;;51.80;2227.20;;;;;;5047357;28;20450;-69
2021/04/14 00:51:21;;;;;;;7.90;4.63;;;51.70;2227.20;;;;;;5046705;28;20053;-67
2021/04/14 00:53:47;;;;;;;6.68;3.90;;;51.70;2227.20;;;;;;5045912;28;20017;-68
2021/04/14 00:56:13;;;;;;;7.28;5.07;;;51.70;2227.20;;;;;;5047489;28;20040;-68
2021/04/14 00:58:39;;;;;;;6.68;4.32;;;51.80;2227.20;;;;;;5046694;28;20017;-69
2021/04/14 01:01:05;;;;;;;5.55;3.35;;;51.80;2227.20;;;;;;5055153;28;20087;-68
2021/04/14 01:03:37;;;;;;;5.88;4.03;;;51.70;2227.20;;;;;;5065187;28;20048;-68
2021/04/14 01:06:13;;;;;;;6.13;4.10;;;51.70;2227.20;;;;;;5065804;28;20201;-69
2021/04/14 01:08:39;;;;;;;6.63;4.20;;;51.70;2227.20;;;;;;5064991;28;20026;-67
2021/04/14 01:11:06;;;;;;;7.65;4.90;;;51.70;2227.20;;;;;;5066802;28;20020;-68
2021/04/14 01:13:33;;;;;;;6.80;3.85;;;51.70;2227.20;;;;;;5059146;28;20031;-67
2021/04/14 01:15:58;;;;;;;12.93;4.55;;;51.70;2227.20;;;;;;5055839;28;20024;-68
2021/04/14 01:18:28;;;;;;;8.10;5.55;;;51.60;2227.20;;;;;;5054718;28;20025;-69
2021/04/14 01:20:55;;;;;;;8.07;4.75;;;51.70;2227.20;;;;;;5054980;28;20017;-68
2021/04/14 01:23:23;;;;;;;8.20;5.60;;;51.60;2227.20;;;;;;5054484;28;20459;-68
2021/04/14 01:25:49;;;;;;;7.93;5.57;;;51.60;2227.20;;;;;;5054212;28;20025;-67
2021/04/14 01:28:19;;;;;;;8.07;5.15;;;51.70;2227.20;;;;;;5054729;28;20032;-67
2021/04/14 01:30:45;;;;;;;8.05;5.65;;;51.70;2227.20;;;;;;5054173;28;20043;-68
2021/04/14 01:33:13;;;;;;;6.72;4.35;;;51.70;2227.20;;;;;;5054005;28;20032;-67
2021/04/14 01:35:40;;;;;;;10.35;5.50;;;51.60;2227.20;;;;;;5054713;28;20109;-68
2021/04/14 01:38:06;;;;;;;7.72;5.15;;;51.60;2227.20;;;;;;5054222;28;20044;-68
2021/04/14 01:40:32;;;;;;;7.82;5.13;;;51.70;2227.20;;;;;;5054555;28;20025;-69
2021/04/14 01:42:58;;;;;;;6.45;4.57;;;51.70;2227.20;;;;;;5054351;28;20033;-69
2021/04/14 01:45:35;;;;;;;7.43;4.90;;;51.60;2227.20;;;;;;5054425;28;20033;-68
2021/04/14 01:48:01;;;;;;;8.15;5.38;;;51.60;2227.20;;;;;;5054670;28;20033;-67
2021/04/14 01:50:28;;;;;;;8.27;5.47;;;51.60;2227.20;;;;;;5054440;28;20025;-69
2021/04/14 01:52:55;;;;;;;9.57;5.78;;;51.60;2227.20;;;;;;5054257;28;20032;-69
2021/04/14 01:55:23;;;;;;;9.38;6.25;;;51.60;2227.20;;;;;;5054267;28;20060;-69
2021/04/14 01:57:49;;;;;;;8.50;5.82;;;51.70;2227.20;;;;;;5053996;28;20041;-68
2021/04/14 02:00:26;;;;;;;8.80;6.22;;;51.70;2227.20;;;;;;5053261;28;20025;-68
2021/04/14 02:02:52;;;;;;;8.13;5.63;;;51.70;2227.20;;;;;;5034686;28;20333;-68
2021/04/14 02:05:22;;;;;;;8.73;6.10;;;51.70;2227.20;;;;;;5033778;28;20055;-67
2021/04/14 02:07:48;;;;;;;8.05;6.05;;;51.70;2227.20;;;;;;5033772;28;20037;-68
2021/04/14 02:10:15;;;;;;;9.02;5.95;;;51.70;2227.20;;;;;;5035070;28;20071;-67
2021/04/14 02:12:41;;;;;;;7.47;5.35;;;51.60;2227.20;;;;;;5037966;28;20112;-69
2021/04/14 02:15:10;;;;;;;7.78;5.63;;;51.60;2227.20;;;;;;5037937;28;20093;-68
2021/04/14 02:17:36;;;;;;;8.05;5.80;;;51.60;2227.20;;;;;;5038225;28;20040;-68
2021/04/14 02:20:05;;;;;;;9.75;6.28;;;51.70;2227.20;;;;;;5037185;28;20033;-68
2021/04/14 02:22:31;;;;;;;9.95;6.30;;;51.60;2227.20;;;;;;5038001;28;20021;-66
2021/04/14 02:24:56;;;;;;;10.27;6.10;;;51.60;2227.20;;;;;;5037869;28;20068;-67
2021/04/14 02:27:22;;;;;;;9.27;6.07;;;51.60;2227.20;;;;;;5037518;28;20104;-68
2021/04/14 02:29:48;;;;;;;9.63;6.55;;;51.60;2227.20;;;;;;5037399;28;20033;-69
2021/04/14 02:32:15;;;;;;;9.13;6.40;;;51.60;2227.20;;;;;;5037798;28;20051;-68
2021/04/14 02:34:40;;;;;;;9.10;6.65;;;51.60;2227.20;;;;;;5037272;28;20040;-69
2021/04/14 02:37:06;;;;;;;8.70;5.90;;;51.60;2227.20;;;;;;5037870;28;20033;-68
2021/04/14 02:39:32;;;;;;;7.80;5.45;;;51.50;2227.20;;;;;;5037358;28;20033;-69
2021/04/14 02:41:58;;;;;;;9.98;5.07;;;51.50;2227.20;;;;;;5036742;28;20084;-68
2021/04/14 02:44:26;;;;;;;9.65;6.45;;;51.50;2227.20;;;;;;5037537;28;20053;-68
2021/04/14 02:46:52;;;;;;;9.75;6.47;;;51.50;2227.20;;;;;;5036966;28;20038;-69
2021/04/14 02:49:18;;;;;;;9.40;5.68;;;51.50;2227.20;;;;;;5036953;28;20029;-69
2021/04/14 02:51:44;;;;;;;10.07;6.90;;;51.50;2227.20;;;;;;5037277;28;20036;-68
2021/04/14 02:54:10;;;;;;;9.40;6.25;;;51.50;2227.20;;;;;;5037329;28;20052;-69
2021/04/14 02:56:36;;;;;;;9.98;6.53;;;51.50;2227.20;;;;;;5036476;28;20029;-68
2021/04/14 02:59:02;;;;;;;9.50;6.18;;;51.50;2227.20;;;;;;5037077;28;20104;-69
2021/04/14 03:01:28;;;;;;;8.98;6.53;;;51.50;2227.20;;;;;;5036600;28;20084;-69
2021/04/14 03:03:54;;;;;;;11.13;7.90;;;51.50;2227.20;;;;;;5036636;28;20353;-68
2021/04/14 03:06:20;;;;;;;10.90;7.38;;;51.60;2227.20;;;;;;5036571;28;20029;-69
2021/04/14 03:08:47;;;;;;;8.95;6.50;;;51.60;2227.20;;;;;;5036669;28;20475;-68
2021/04/14 03:11:13;;;;;;;10.23;6.95;;;51.60;2227.20;;;;;;5036232;28;20108;-69
2021/04/14 03:13:39;;;;;;;10.70;6.22;;;51.60;2227.20;;;;;;5036751;28;20176;-68
2021/04/14 03:16:05;;;;;;;10.13;7.05;;;51.60;2227.20;;;;;;5035917;28;20048;-69
2021/04/14 03:18:30;;;;;;;8.85;6.03;;;51.60;2227.20;;;;;;5036406;28;20029;-69
2021/04/14 03:20:56;;;;;;;9.65;6.38;;;51.50;2227.20;;;;;;5036769;28;20029;-69
2021/04/14 03:23:22;;;;;;;9.77;6.63;;;51.50;2227.20;;;;;;5035735;28;20018;-69
2021/04/14 03:25:49;;;;;;;10.90;7.43;;;51.60;2227.20;;;;;;5036751;28;20060;-68
2021/04/14 03:28:15;;;;;;;11.38;7.60;;;51.60;2227.20;;;;;;5036466;28;20032;-68
2021/04/14 03:30:41;;;;;;;10.48;7.28;;;51.60;2227.20;;;;;;5036189;28;20547;-69
2021/04/14 03:33:08;;;;;;;12.15;7.50;;;51.60;2227.20;;;;;;5036103;28;20053;-69
2021/04/14 03:35:34;;;;;;;9.02;6.72;;;51.60;2227.20;;;;;;5036586;28;20033;-69
2021/04/14 03:38:01;;;;;;;11.60;8.20;;;51.60;2227.20;;;;;;5035992;28;20052;-69
2021/04/14 03:40:28;;;;;;;11.98;7.95;;;51.60;2227.20;;;;;;5036124;28;20068;-68
2021/04/14 03:42:55;;;;;;;13.15;7.80;;;51.50;2227.20;;;;;;5036163;28;20376;-68
2021/04/14 03:45:28;;;;;;;13.73;8.48;;;51.60;2227.20;;;;;;5035301;28;20313;-67
2021/04/14 03:47:55;;;;;;;11.15;7.90;;;51.50;2227.20;;;;;;5036200;28;20079;-68
2021/04/14 03:50:22;;;;;;;11.07;7.20;;;51.60;2227.20;;;;;;5036440;28;20346;-68
2021/04/14 03:52:48;;;;;;;9.85;7.28;;;51.50;2227.20;;;;;;5035428;28;20251;-68
2021/04/14 03:55:16;;;;;;;11.98;7.20;;;51.50;2227.20;;;;;;5035708;28;20112;-68
2021/04/14 03:57:42;;;;;;;11.25;7.40;;;51.40;2227.20;;;;;;5035084;28;20738;-67
2021/04/14 04:00:11;;;;;;;11.52;7.07;;;51.50;2227.20;;;;;;5035826;28;20033;-68
2021/04/14 04:02:36;;;;;;;11.70;7.05;;;51.50;2227.20;;;;;;5055797;28;20098;-69
2021/04/14 04:05:03;;;;;;;12.70;7.20;;;51.50;2227.20;;;;;;5055243;28;20060;-68
2021/04/14 04:07:29;;;;;;;9.63;6.60;;;51.50;2227.20;;;;;;5055652;28;20029;-68
2021/04/14 04:09:54;;;;;;;9.45;6.15;;;51.60;2227.20;;;;;;5055863;28;20091;-68
2021/04/14 04:12:20;;;;;;;11.45;8.13;;;51.50;2227.20;;;;;;5055656;28;20059;-69
2021/04/14 04:14:50;;;;;;;10.90;7.50;;;51.50;2227.20;;;;;;5055653;28;20041;-67
2021/04/14 04:17:18;;;;;;;11.15;7.55;;;51.60;2227.20;;;;;;5055690;28;20051;-69
2021/04/14 04:19:44;;;;;;;10.90;7.35;;;51.60;2227.20;;;;;;5055416;28;20064;-69
2021/04/14 04:22:12;;;;;;;12.10;7.75;;;51.60;2227.20;;;;;;5055310;28;20024;-68
2021/04/14 04:24:38;;;;;;;13.57;7.80;;;51.60;2227.20;;;;;;5055307;28;20037;-68
2021/04/14 04:27:05;;;;;;;11.80;7.68;;;51.60;2227.20;;;;;;5055071;28;20424;-68
2021/04/14 04:29:30;;;;;;;10.95;8.05;;;51.50;2227.20;;;;;;5054747;28;20083;-69
2021/04/14 04:31:56;;;;;;;13.20;7.88;;;51.60;2227.20;;;;;;5055278;28;20041;-68
2021/04/14 04:34:22;;;;;;;9.63;6.22;;;51.60;2227.20;;;;;;5054628;28;20103;-68
2021/04/14 04:36:50;;;;;;;8.93;5.85;;;51.60;2227.20;;;;;;5055091;28;20029;-70
2021/04/14 04:39:16;;;;;;;12.05;6.80;;;51.60;2227.20;;;;;;5055328;28;20384;-68
2021/04/14 04:41:42;;;;;;;9.88;6.53;;;51.60;2227.20;;;;;;5054766;28;20052;-68
2021/04/14 04:44:08;;;;;;;10.48;6.68;;;51.70;2227.20;;;;;;5055246;28;20100;-69
2021/04/14 04:46:34;;;;;;;11.43;7.18;;;51.70;2227.20;;;;;;5054821;28;20492;-69
2021/04/14 04:49:00;;;;;;;12.95;8.25;;;51.70;2227.20;;;;;;5055278;28;20032;-68
2021/04/14 04:51:26;;;;;;;10.05;6.70;;;51.80;2227.20;;;;;;5054449;28;20032;-69
2021/04/14 04:53:52;;;;;;;9.90;6.57;;;51.90;2227.20;;;;;;5054246;28;20636;-69
2021/04/14 04:56:18;;;;;;;10.02;6.35;;;52.00;2227.20;;;;;;5054680;28;20068;-68
2021/04/14 04:58:45;;;;;;;10.95;6.97;;;52.10;2227.20;;;;;;5055102;28;20091;-68
2021/04/14 05:01:11;;;;;;;10.80;7.10;;;76.80;2227.20;;;;;;5046351;28;20348;-69
2021/04/14 05:03:37;;;;;;;9.63;6.57;;;76.90;2227.20;;;;;;5034912;28;20029;-68
2021/04/14 05:06:03;;;;;;;9.05;6.47;;;76.80;2227.20;;;;;;5034980;28;20405;-68
2021/04/14 05:08:29;;;;;;;9.38;6.30;;;52.00;2227.20;;;;;;5034856;28;20035;-68
2021/04/14 05:10:56;;;;;;;10.90;7.32;;;52.00;2227.20;;;;;;5035073;28;20032;-68
2021/04/14 05:13:21;;;;;;;8.20;5.95;;;52.00;2227.20;;;;;;5034817;28;20025;-68
2021/04/14 05:15:48;;;;;;;11.65;6.60;;;52.00;2227.20;;;;;;5037608;28;20083;-68
2021/04/14 05:18:14;;;;;;;8.60;6.40;;;51.90;2227.20;;;;;;5056493;28;20120;-68
2021/04/14 05:20:41;;;;;;;14.48;10.52;;;52.00;2227.20;;;;;;5057169;28;20056;-69
2021/04/14 05:23:09;;;;;;;8.80;6.38;;;52.10;2227.20;;;;;;5056578;28;20029;-69
2021/04/14 05:25:39;;;;;;;7.18;5.45;;;76.80;2227.20;;;;;;5057134;28;20028;-69
2021/04/14 05:28:08;;;;;;;9.15;6.15;;;76.80;2227.20;;;;;;5057244;28;20029;-69
2021/04/14 05:30:34;;;;;;;8.35;5.82;;;76.80;2227.20;;;;;;5056819;28;20021;-68
2021/04/14 05:33:00;;;;;;;8.57;5.53;;;76.80;2227.20;;;;;;5056783;28;20029;-67
2021/04/14 05:35:26;;;;;;;9.88;6.10;;;76.80;2227.20;;;;;;5056764;28;20075;-69
2021/04/14 05:37:52;;;;;;;7.70;5.35;;;76.80;2227.20;;;;;;5056663;28;20351;-70
2021/04/14 05:40:19;;;;;;;7.57;5.05;;;76.80;2227.20;;;;;;5056983;28;20039;-68
2021/04/14 05:42:46;;;;;;;7.30;4.95;;;77.00;2227.20;;;;;;5056692;28;20029;-69
2021/04/14 05:45:19;;;;;;;8.77;5.63;;;77.00;2227.20;;;;;;5057257;28;20075;-69
2021/04/14 05:47:45;;;;;;;6.80;5.07;;;77.00;2227.20;;;;;;5060955;28;20025;-68
2021/04/14 05:50:13;;;;;;;7.10;4.57;;;77.10;2227.20;;;;;;5060010;28;20074;-68
2021/04/14 05:52:39;;;;;;;29.70;16.02;;;77.00;2227.20;;;;;;5060464;28;20374;-68
2021/04/14 05:55:06;;;;;;;7.30;5.32;;;77.10;2227.20;;;;;;5060499;28;20028;-69
2021/04/14 05:57:32;;;;;;;9.52;7.07;;;77.20;2227.20;;;;;;5060109;28;20035;-68
2021/04/14 05:59:58;;;;;;;7.65;5.50;;;77.40;2227.20;;;;;;5060681;28;20116;-68
2021/04/14 06:02:23;;;;;;;7.85;4.97;;;77.50;2227.20;;;;;;5051326;28;20129;-68
2021/04/14 06:04:52;;;;;;;8.05;5.35;;;77.60;2227.20;;;;;;5039942;28;20025;-69
2021/04/14 06:07:18;;;;;;;6.25;4.38;;;77.50;2227.20;;;;;;5040613;28;20108;-67
2021/04/14 06:09:44;;;;;;;6.13;4.32;;;77.60;2227.20;;;;;;5039706;28;20107;-69
2021/04/14 06:12:11;;;;;;;8.05;5.55;;;77.60;2227.20;;;;;;5040223;28;20022;-68
2021/04/14 06:14:37;;;;;;;7.78;4.60;;;77.50;2227.20;;;;;;5040442;28;20503;-69
2021/04/14 06:17:03;;;;;;;7.28;4.75;;;77.60;2227.20;;;;;;5043236;28;20065;-68
2021/04/14 06:19:29;;;;;;;6.43;4.78;;;77.60;2227.20;;;;;;5059462;28;20356;-68
2021/04/14 06:21:54;;;;;;;6.82;5.22;;;77.60;2227.20;;;;;;5059976;28;20025;-68
2021/04/14 06:24:20;;;;;;;6.88;4.82;;;77.70;2227.20;;;;;;5060170;28;20025;-69
2021/04/14 06:26:50;;;;;;;6.03;3.83;;;102.40;2227.20;;;;;;5052756;28;20093;-69
2021/04/14 06:29:16;;;;;;;6.57;3.85;;;102.40;2227.20;;;;;;5057565;28;20120;-69
2021/04/14 06:31:42;;;;;;;7.05;4.25;;;102.40;2227.20;;;;;;5050432;28;20072;-67
2021/04/14 06:34:14;;;;;;;7.35;4.60;;;102.40;2227.20;;;;;;5049310;28;20040;-69
2021/04/14 06:36:41;;;;;;;5.78;4.47;;;102.50;2227.20;;;;;;5050134;28;20016;-69
2021/04/14 06:39:10;;;;;;;8.00;5.43;;;102.70;2227.20;;;;;;5048610;28;20416;-70
2021/04/14 06:42:17;;;;;;;7.45;4.93;;;102.70;2227.20;;;;;;5047909;28;20336;-70
2021/04/14 06:45:01;;;;;;;7.18;4.97;;;102.90;2227.20;;;;;;5047168;28;20045;-71
2021/04/14 06:47:40;;;;;;;6.35;4.30;;;102.90;2227.20;;;;;;5048409;28;20072;-70
2021/04/14 06:50:11;;;;;;;;;;;103.00;2227.20;;;;;;5048660;28;20025;-68
2021/04/14 06:52:49;;;;;;;7.22;5.20;;;103.10;2227.20;;;;;;5048886;28;19959;-68
2021/04/14 06:55:24;;;;;;;5.53;3.90;;;103.00;2227.20;;;;;;5048216;28;20056;-69
2021/04/14 06:58:04;;;;;;;6.57;4.70;;;102.90;2227.20;;;;;;5046460;28;20104;-69
2021/04/14 07:00:37;;;;;;;9.27;5.57;;;103.20;2227.20;;;;;;5048210;28;20340;-68
2021/04/14 07:03:26;;;;;;;7.50;5.43;;;103.00;2227.20;;;;;;5049874;28;20032;-70
2021/04/14 07:05:57;;;;;;;7.38;5.10;;;103.00;2227.20;;;;;;5049372;28;20304;-70
2021/04/14 07:08:27;;;;;;;6.25;4.13;;;103.10;2227.20;;;;;;5049403;28;20104;-68
2021/04/14 07:10:59;;;;;;;5.78;3.97;;;103.00;2227.20;;;;;;5046261;28;20025;-68
2021/04/14 07:13:27;;;;;;;5.65;3.90;;;102.80;2227.20;;;;;;5043119;28;20370;-68
2021/04/14 07:16:05;;;;;;;5.70;3.45;;;102.50;2227.20;;;;;;5049902;28;20045;-68
2021/04/14 07:18:50;;;;;;;6.55;3.80;;;102.50;2227.20;;;;;;5049500;28;20033;-68
2021/04/14 07:21:40;;;;;;;8.40;4.00;;;102.70;2227.20;;;;;;5038645;28;20404;-68
2021/04/14 07:24:15;;;;;;;5.88;4.05;;;102.90;2227.20;;;;;;5031555;28;20057;-68
2021/04/14 07:26:47;;;;;;;7.40;3.65;;;103.10;2227.20;;;;;;5038811;28;20041;-67
2021/04/14 07:29:17;;;;;;;4.57;3.28;;;103.00;2227.20;;;;;;5038833;28;20029;-70
2021/04/14 07:31:57;;;;;;;5.47;3.78;;;103.10;2227.20;;;;;;5038420;28;20022;-68
2021/04/14 07:34:41;;;;;;;4.50;3.15;;;103.20;2227.20;;;;;;5038546;28;20028;-68
2021/04/14 07:37:17;;;;;;;5.47;3.42;;;103.20;2227.20;;;;;;5055652;28;20040;-69
2021/04/14 07:40:06;;;;;;;5.07;3.42;;;103.30;2227.20;;;;;;5056239;28;20029;-67
2021/04/14 07:42:42;;;;;;;5.68;3.30;;;103.10;2227.20;;;;;;5050145;28;20335;-67
2021/04/14 07:45:20;;;;;;;5.13;3.45;;;103.30;2227.20;;;;;;5053287;28;20033;-68
2021/04/14 07:47:51;;;;;;;4.93;3.30;;;103.30;2227.20;;;;;;5052578;28;20060;-67
2021/04/14 07:50:21;;;;;;;6.45;3.65;;;103.10;2227.20;;;;;;5054992;28;20079;-67
2021/04/14 07:52:47;;;;;;;4.20;3.15;;;103.10;2227.20;;;;;;5053085;28;20029;-68
2021/04/14 07:55:34;;;;;;;5.85;3.78;;;103.10;2227.20;;;;;;5046644;28;20636;-68
2021/04/14 07:58:09;;;;;;;4.70;3.40;;;103.10;2227.20;;;;;;5046386;28;20032;-67
2021/04/14 08:00:39;;;;;;;5.50;3.63;;;103.00;2227.20;;;;;;5045791;28;20079;-67
2021/04/14 08:03:10;;;;;;;6.72;3.97;;;102.90;2227.20;;;;;;5046049;28;20104;-68
2021/04/14 08:05:36;;;;;;;23.70;12.30;;;102.80;2227.20;;;;;;5045481;28;20048;-67
2021/04/14 08:08:13;;;;;;;6.78;4.30;;;102.70;2227.20;;;;;;5039346;28;20540;-68
2021/04/14 08:10:39;;;;;;;5.53;3.67;;;102.70;2227.20;;;;;;5043298;28;20083;-68
2021/04/14 08:13:09;;;;;;;7.53;4.28;;;102.70;2227.20;;;;;;5035846;28;20029;-69
2021/04/14 08:15:44;;;;;;;7.00;4.53;;;102.60;2227.20;;;;;;5044443;28;20040;-68
2021/04/14 08:18:24;;;;;;;7.20;4.68;;;102.60;2227.20;;;;;;5055092;28;20366;-69
2021/04/14 08:21:08;;;;;;;5.93;3.90;;;102.70;2227.20;;;;;;5054616;28;20032;-68
2021/04/14 08:23:35;;;;;;;5.82;3.85;;;102.70;2227.20;;;;;;5053624;28;20024;-68
2021/04/14 08:26:11;;;;;;;6.72;3.45;;;102.60;2227.20;;;;;;5053894;28;20428;-67
2021/04/14 08:28:47;;;;;;;5.00;3.42;;;102.50;2227.20;;;;;;5053738;28;20074;-70
2021/04/14 08:31:34;;;;;;;4.60;3.40;;;102.50;2227.20;;;;;;5053444;28;20024;-67
2021/04/14 08:34:09;;;;;;;4.43;3.00;;;102.60;2227.20;;;;;;5054272;28;20460;-69
2021/04/14 08:36:42;;;;;;;4.90;2.60;;;102.60;2227.20;;;;;;5054441;28;20025;-69
2021/04/14 08:39:31;;;;;;;2.75;1.98;;;102.60;2227.20;;;;;;5054825;28;20025;-69
2021/04/14 08:42:23;;;;;;;4.07;1.90;;;102.60;2227.20;;;;;;5054679;28;20021;-70
2021/04/14 08:45:09;;;;;;;4.47;1.95;;;102.70;2227.20;;;;;;5054923;28;20051;-70
2021/04/14 08:47:38;;;;;;;3.50;1.83;;;102.80;2227.20;;;;;;5055067;28;20110;-70
2021/04/14 08:50:16;;;;;;;;;;;102.70;2227.20;;;;;;5055002;28;20368;-67
2021/04/14 08:52:48;;;;;;;;;;;102.70;2227.20;;;;;;5055301;28;20284;-69
2021/04/14 08:55:14;;;;;;;;;;;102.60;2227.20;;;;;;5051644;28;19909;-68
2021/04/14 08:57:40;;;;;;;;;;;102.70;2227.20;;;;;;5054963;28;19923;-69
2021/04/14 09:00:07;;;;;;;;;;;102.80;2227.20;;;;;;5054962;28;19909;-69
2021/04/14 09:02:33;;;;;;;;;;;103.00;2227.20;;;;;;5050381;28;20018;-70
2021/04/14 09:05:01;;;;;;;;;;;128.00;2252.80;;;;;;5044054;28;20067;-69
2021/04/14 09:07:32;;;;;;;;;;;128.20;2252.80;;;;;;5044249;28;19912;-69
2021/04/14 09:09:59;;;;;;;;;;;128.10;2252.80;;;;;;5040540;28;19978;-68
2021/04/14 09:12:41;;;;;;;;;;;128.00;2252.80;;;;;;5034569;28;20113;-69
2021/04/14 09:15:08;;;;;;;;;;;128.00;2252.80;;;;;;5034590;28;20506;-68
2021/04/14 09:17:34;;;;;;;;;;;103.30;2227.20;;;;;;5040642;28;19928;-68
2021/04/14 09:20:09;;;;;;;;;;;103.20;2227.20;;;;;;5041338;28;19916;-68
2021/04/14 09:22:35;;;;;;;;;;;103.30;2227.20;;;;;;5051480;28;19909;-68
2021/04/14 09:25:07;;;;;;;;;;;128.00;2252.80;;;;;;5049032;28;19908;-67
2021/04/14 09:27:36;;;;;;;;;;;128.10;2252.80;;;;;;5049423;28;20002;-68
2021/04/14 09:30:11;;;;;;;;;;;128.30;2252.80;;;;;;5048743;28;19931;-70
2021/04/14 09:32:45;;;;;;;;;;;128.40;2252.80;;;;;;5047716;28;19909;-67
2021/04/14 09:35:14;;;;;;;;;;;128.60;2252.80;;;;;;5047072;28;19912;-69
2021/04/14 09:37:40;;;;;;;;;;;128.60;2252.80;;;;;;5046625;28;19924;-68
2021/04/14 09:40:06;;;;;;;;;;;128.50;2252.80;;;;;;5039439;28;19909;-68
2021/04/14 09:42:34;;;;;;;;;;;128.50;2252.80;;;;;;5038735;28;19905;-66
2021/04/14 09:45:18;;;;;;;;;;;128.40;2252.80;;;;;;5047459;28;19916;-68
2021/04/14 09:47:44;;;;;;;;;;;128.30;2252.80;;;;;;5058457;28;19909;-70
2021/04/14 09:50:15;;;;;;;;;;;128.10;2252.80;;;;;;5059422;28;19915;-68
2021/04/14 09:52:43;;;;;;;;;;;128.20;2252.80;;;;;;5058731;28;20019;-68
2021/04/14 09:55:18;;;;;;;;;;;128.20;2252.80;;;;;;5058701;28;20374;-69
2021/04/14 09:57:48;;;;;;;;;;;128.20;2252.80;;;;;;5054720;28;20308;-68
2021/04/14 10:00:16;;;;;;;;;;;128.20;2252.80;;;;;;5047812;28;19971;-68
2021/04/14 10:02:41;;;;;;;;;;;128.30;2252.80;;;;;;5046990;28;19905;-70
2021/04/14 10:05:08;;;;;;;;;;;128.60;2252.80;;;;;;5049015;28;19908;-70
2021/04/14 10:07:35;;;;;;;;;;;128.70;2252.80;;;;;;5053282;28;19909;-69
2021/04/14 10:10:09;;;;;;;;;;;128.90;2252.80;;;;;;5040898;28;19913;-68
2021/04/14 10:12:35;;;;;;;;;;;153.60;2252.80;;;;;;5049091;28;19909;-69
2021/04/14 10:15:02;;;;;;;;;;;153.60;2252.80;;;;;;5048848;28;20263;-69
2021/04/14 10:17:30;;;;;;;;;;;128.90;2252.80;;;;;;5047291;28;19921;-69
2021/04/14 10:20:06;;;;;;;;;;;128.60;2252.80;;;;;;5049125;28;19913;-70
2021/04/14 10:22:37;;;;;;;;;;;128.30;2252.80;;;;;;5047534;28;19909;-69
2021/04/14 10:25:08;;;;;;;;;;;128.30;2252.80;;;;;;5049332;28;20560;-69
2021/04/14 10:27:34;;;;;;;;;;;128.30;2252.80;;;;;;5047968;28;19987;-68
2021/04/14 10:30:00;;;;;;;;;;;128.50;2252.80;;;;;;5048233;28;19999;-66
2021/04/14 10:32:28;;;;;;;;;;;128.60;2252.80;;;;;;5039577;28;20224;-70
2021/04/14 10:34:54;;;;;;;;;;;128.80;2252.80;;;;;;5053346;28;19912;-68
2021/04/14 10:37:21;;;;;;;;;;;128.90;2252.80;;;;;;5058140;28;19923;-68
2021/04/14 10:39:46;;;;;;;;;;;128.80;2252.80;;;;;;5058036;28;19909;-69
2021/04/14 10:42:14;;;;;;;;;;;128.60;2252.80;;;;;;5054212;28;19912;-69
2021/04/14 10:44:39;;;;;;;;;;;128.40;2252.80;;;;;;5040999;28;19950;-68
2021/04/14 10:47:07;;;;;;;;;;;128.30;2252.80;;;;;;5057241;28;19908;-69
2021/04/14 10:49:35;;;;;;;;;;;128.30;2252.80;;;;;;5057302;28;19932;-68
2021/04/14 10:52:09;;;;;;;;;;;128.20;2252.80;;;;;;5056468;28;19905;-67
2021/04/14 10:54:35;;;;;;;;;;;128.20;2252.80;;;;;;5057519;28;19951;-69
2021/04/14 10:57:03;;;;;;;;;;;128.20;2252.80;;;;;;5057398;28;19971;-69
2021/04/14 10:59:30;;;;;;;;;;;128.20;2252.80;;;;;;5057106;28;19908;-69
2021/04/14 11:01:56;;;;;;;;;;;128.30;2252.80;;;;;;5057805;28;19928;-69
2021/04/14 11:04:32;;;;;;;;;;;128.20;2252.80;;;;;;5057976;28;19905;-68
2021/04/14 11:07:04;;;;;;;;;;;128.40;2252.80;;;;;;5057685;28;20304;-68
2021/04/14 11:09:31;;;;;;;;;;;128.60;2252.80;;;;;;5057733;28;19908;-70
2021/04/14 11:11:58;;;;;;;;;;;128.70;2252.80;;;;;;5057085;28;19912;-67
2021/04/14 11:14:24;;;;;;;;;;;128.90;2252.80;;;;;;5057418;28;19948;-69
2021/04/14 11:16:50;;;;;;;;;;;153.60;2252.80;;;;;;5057379;28;19952;-69
2021/04/14 11:19:17;;;;;;;;;;;153.80;2252.80;;;;;;5056723;28;19913;-69
2021/04/14 11:21:43;;;;;;;;;;;153.70;2252.80;;;;;;5057308;28;19905;-68
2021/04/14 11:24:11;;;;;;;;;;;153.90;2252.80;;;;;;5057396;28;19916;-68
2021/04/14 11:26:47;;;;;;;;;;;154.00;2252.80;;;;;;5055970;28;20038;-70
2021/04/14 11:29:24;;;;;;;;;;;153.80;2252.80;;;;;;5056777;28;19930;-70
2021/04/14 11:31:51;;;;;;;;;;;128.90;2252.80;;;;;;5056755;28;19912;-69
2021/04/14 11:34:22;;;;;;;;;;;128.60;2252.80;;;;;;5055846;28;20227;-67
2021/04/14 11:36:53;;;;;;;;;;;128.60;2252.80;;;;;;5057255;28;19916;-69
2021/04/14 11:39:19;;;;;;;;;;;128.50;2252.80;;;;;;5056903;28;19908;-69
2021/04/14 11:42:04;;;;;;;;;;;128.60;2252.80;;;;;;5056061;28;19915;-68
2021/04/14 11:44:38;;;;;;;;;;;128.80;2252.80;;;;;;5056182;28;19909;-70
2021/04/14 11:47:05;;;;;;;;;;;128.90;2252.80;;;;;;5056375;28;19909;-70
2021/04/14 11:49:33;;;;;;;;;;;128.60;2252.80;;;;;;5057003;28;19908;-67
2021/04/14 11:52:10;;;;;;;;;;;128.60;2252.80;;;;;;5056205;28;19950;-69
2021/04/14 11:54:36;;;;;;;;;;;128.60;2252.80;;;;;;5056927;28;19908;-67
2021/04/14 11:57:11;;;;;;;;;;;128.50;2252.80;;;;;;5055954;28;19920;-68
2021/04/14 11:59:37;;;;;;;;;;;128.50;2252.80;;;;;;5056305;28;19913;-69
2021/04/14 12:02:04;;;;;;;;;;;128.70;2252.80;;;;;;5056110;28;19927;-69
2021/04/14 12:04:31;;;;;;;;;;;128.60;2252.80;;;;;;5056152;28;19916;-68
2021/04/14 12:06:57;;;;;;;;;;;128.70;2252.80;;;;;;5056144;28;19915;-68
2021/04/14 12:09:22;;;;;;;;;;;128.90;2252.80;;;;;;5056290;28;19909;-68
2021/04/14 12:11:58;;;;;;;;;;;128.90;2252.80;;;;;;5055798;28;19913;-69
2021/04/14 12:14:24;;;;;;;;;;;153.60;2252.80;;;;;;5053755;28;20003;-71
2021/04/14 12:16:49;;;;;;;;;;;128.90;2252.80;;;;;;5056240;28;20011;-67
2021/04/14 12:19:15;;;;;;;;;;;128.70;2252.80;;;;;;5056000;28;19908;-68
2021/04/14 12:21:40;;;;;;;;;;;128.60;2252.80;;;;;;5056482;28;19917;-68
2021/04/14 12:24:06;;;;;;;;;;;128.80;2252.80;;;;;;5055584;28;19905;-69
2021/04/14 12:26:32;;;;;;;;;;;128.80;2252.80;;;;;;5055886;28;20011;-69
2021/04/14 12:28:57;;;;;;;;;;;128.90;2252.80;;;;;;5055405;28;20324;-68
2021/04/14 12:31:23;;;;;;;;;;;128.80;2252.80;;;;;;5055502;28;19916;-68
2021/04/14 12:33:49;;;;;;;;;;;128.90;2252.80;;;;;;5055802;28;20288;-69
2021/04/14 12:36:15;;;;;;;;;;;128.90;2252.80;;;;;;5054462;28;19916;-68
2021/04/14 12:38:40;;;;;;;;;;;128.90;2252.80;;;;;;5055795;28;19905;-70
2021/04/14 12:41:06;;;;;;;;;;;153.60;2252.80;;;;;;5054324;28;19915;-70
2021/04/14 12:43:32;;;;;;;;;;;153.90;2252.80;;;;;;5054623;28;19909;-68
2021/04/14 12:45:57;;;;;;;;;;;154.00;2252.80;;;;;;5055163;28;19916;-70
2021/04/14 12:48:25;;;;;;;;;;;154.00;2252.80;;;;;;5054339;28;19912;-69
2021/04/14 12:50:57;;;;;;;;;;;153.90;2252.80;;;;;;5054512;28;19909;-69
2021/04/14 12:53:23;;;;;;;;;;;154.00;2252.80;;;;;;5054823;28;19908;-69